Home > Products > Valid Products > TAF

000
FTUS44 KMAF 301128
TAFMAF
TAF
KMAF 301128Z 3012/3112 VRB04KT P6SM FEW100 SCT250
     FM301500 17009KT P6SM FEW090 SCT250=



000
FTUS44 KMAF 301128
TAFMAF
TAF
KMAF 301128Z 3012/3112 VRB04KT P6SM FEW100 SCT250
     FM301500 17009KT P6SM FEW090 SCT250=



000
FTUS44 KMAF 300524
TAFMAF
TAF
KMAF 300524Z 3006/3106 11004KT P6SM FEW100 SCT250
     FM301500 17009KT P6SM FEW090 SCT250=



000
FTUS44 KMAF 292322
TAFMAF
TAF
KMAF 292322Z 3000/3024 14007KT P6SM SCT090 BKN200=



000
FTUS44 KMAF 292322
TAFMAF
TAF
KMAF 292322Z 3000/3024 14007KT P6SM SCT090 BKN200=



000
FTUS44 KMAF 292037 AAA
TAFMAF
TAF AMD
KMAF 292037Z 2921/3018 16008KT P6SM BKN090 OVC130
     FM300300 14010KT P6SM SCT100=



000
FTUS44 KMAF 291730 CCA
TAFMAF
TAF COR
KMAF 291730Z 2918/3018 05008KT P6SM BKN080
     FM292100 09008KT P6SM BKN100 OVC150
     FM300000 13010KT P6SM BKN120 OVC250=



000
FTUS44 KMAF 291730 CCA
TAFMAF
TAF COR
KMAF 291730Z 2918/3018 05008KT P6SM BKN080
     FM292100 09008KT P6SM BKN100 OVC150
     FM300000 13010KT P6SM BKN120 OVC250=



000
FTUS44 KMAF 291728
TAFMAF
TAF
KMAF 291728Z 2918/3018 02008KT P6SM BKN080
     FM292100 06008KT P6SM BKN100 OVC150
     FM300000 13010KT P6SM BKN120 OVC250=



000
FTUS44 KMAF 291728
TAFMAF
TAF
KMAF 291728Z 2918/3018 02008KT P6SM BKN080
     FM292100 06008KT P6SM BKN100 OVC150
     FM300000 13010KT P6SM BKN120 OVC250=



000
FTUS44 KMAF 291621 AAE
TAFMAF
TAF AMD
KMAF 291621Z 2916/3012 35010KT P6SM SCT080 OVC100
      TEMPO 2916/2918 VRB15G25KT SHRA BKN080
     FM291800 08009KT P6SM BKN100 OVC150
     FM292300 13010KT P6SM BKN120 OVC250=



000
FTUS44 KMAF 291620 AAD
TAFMAF
TAF AMD
KMAF 291620Z 2916/3012 35010KT P6SM SCT080 OVC100
      TEMPO 2916/2918 VRB15G25KT SHRA BKN100
     FM291800 08009KT P6SM BKN100 OVC150
     FM292300 13010KT P6SM BKN120 OVC250=



000
FTUS44 KMAF 291511 AAC
TAFMAF
TAF AMD
KMAF 291511Z 2915/3012 35008KT P6SM SCT080 OVC100
     FM291800 08009KT P6SM BKN100 OVC150
     FM292300 13010KT P6SM BKN120 OVC250=



000
FTUS44 KMAF 291500 AAB
TAFMAF
TAF AMD
KMAF 291500Z 2915/3012 35008KT P6SM SCT080 OVC100
     FM291800 12009KT P6SM BKN100 OVC150=



000
FTUS44 KMAF 291336 AAC
TAFMAF
TAF AMD
KMAF 291336Z 2914/3012 35008KT P6SM BKN120 OVC200
      TEMPO 2914/2915 VRB15G25KT SHRA BKN100
     FM291800 12009KT P6SM BKN120 BKN250=



000
FTUS44 KMAF 291324 AAB
TAFMAF
TAF AMD
KMAF 291324Z 2913/3012 14008KT P6SM SCT100 BKN250
      TEMPO 2913/2915 VRB15G25KT SHRA BKN100=



000
FTUS44 KMAF 291324 AAB
TAFMAF
TAF AMD
KMAF 291324Z 2913/3012 14008KT P6SM SCT100 BKN250
      TEMPO 2913/2915 VRB15G25KT SHRA BKN100=



000
FTUS44 KMAF 291211 AAA
TAFMAF
TAF AMD
KMAF 291211Z 2912/3012 14008KT P6SM SCT100 BKN250
      TEMPO 2912/2914 VRB15G25KT SHRA BKN100=



000
FTUS44 KMAF 291211 AAA
TAFMAF
TAF AMD
KMAF 291211Z 2912/3012 14008KT P6SM SCT100 BKN250
      TEMPO 2912/2914 VRB15G25KT SHRA BKN100=



000
FTUS44 KMAF 291120
TAFMAF
TAF
KMAF 291120Z 2912/3012 14006KT P6SM SCT100 BKN250=



000
FTUS44 KMAF 291120
TAFMAF
TAF
KMAF 291120Z 2912/3012 14006KT P6SM SCT100 BKN250=



000
FTUS44 KMAF 290534
TAFMAF
TAF
KMAF 290534Z 2906/3006 24007KT P6SM BKN100=



000
FTUS44 KMAF 290207 AAA
TAFMAF
TAF AMD
KMAF 290207Z 2902/2924 16008KT P6SM SCT100 SCT250=



000
FTUS44 KMAF 290207 AAA
TAFMAF
TAF AMD
KMAF 290207Z 2902/2924 16008KT P6SM SCT100 SCT250=



000
FTUS44 KMAF 282320
TAFMAF
TAF
KMAF 282320Z 2900/2924 32015G22KT P6SM SCT100 SCT250
      TEMPO 2900/2904 VRB30G40KT TSRA BKN060CB
     FM290400 17010KT P6SM SCT100 SCT250=



000
FTUS44 KMAF 282320
TAFMAF
TAF
KMAF 282320Z 2900/2924 32015G22KT P6SM SCT100 SCT250
      TEMPO 2900/2904 VRB30G40KT TSRA BKN060CB
     FM290400 17010KT P6SM SCT100 SCT250=



000
FTUS44 KMAF 281725
TAFMAF
TAF
KMAF 281725Z 2818/2918 18011KT P6SM SCT100 SCT250
      TEMPO 2818/2822 19012G22KT
     FM291000 13009KT P6SM BKN250=



000
FTUS44 KMAF 281725
TAFMAF
TAF
KMAF 281725Z 2818/2918 18011KT P6SM SCT100 SCT250
      TEMPO 2818/2822 19012G22KT
     FM291000 13009KT P6SM BKN250=



000
FTUS44 KMAF 281559 AAB
TAFMAF
TAF AMD
KMAF 281559Z 2816/2912 18011KT P6SM SCT100 SCT250
      TEMPO 2816/2820 19012G22KT
     FM291000 13009KT P6SM BKN250=



000
FTUS44 KMAF 281559 AAB
TAFMAF
TAF AMD
KMAF 281559Z 2816/2912 18011KT P6SM SCT100 SCT250
      TEMPO 2816/2820 19012G22KT
     FM291000 13009KT P6SM BKN250=



000
FTUS44 KMAF 281546 AAC
TAFMAF
TAF AMD
KMAF 281546Z 2816/2912 18011KT P6SM SCT100 SCT250
     FM291000 13009KT P6SM BKN250=



000
FTUS44 KMAF 281545 AAB
TAFMAF
TAF AMD
KMAF 281545Z 2816/2912 18011KT P6SM SCT100 SCT250=



000
FTUS44 KMAF 281545 AAB
TAFMAF
TAF AMD
KMAF 281545Z 2816/2912 18011KT P6SM SCT100 SCT250=



000
FTUS44 KMAF 281356 AAA
TAFMAF
TAF AMD
KMAF 281356Z 2814/2912 18011KT P6SM SCT100 BKN250=



000
FTUS44 KMAF 281125
TAFMAF
TAF
KMAF 281125Z 2812/2912 18009KT P6SM SCT100 BKN250=



000
FTUS44 KMAF 281125
TAFMAF
TAF
KMAF 281125Z 2812/2912 18009KT P6SM SCT100 BKN250=



000
FTUS44 KMAF 280523
TAFMAF
TAF
KMAF 280523Z 2806/2906 17009KT P6SM SCT250=



000
FTUS44 KMAF 280523
TAFMAF
TAF
KMAF 280523Z 2806/2906 17009KT P6SM SCT250=



000
FTUS44 KMAF 280305 AAD
TAFMAF
TAF AMD
KMAF 280305Z 2803/2824 18010KT P6SM FEW250=



000
FTUS44 KMAF 280305 AAD
TAFMAF
TAF AMD
KMAF 280305Z 2803/2824 18010KT P6SM FEW250=



000
FTUS44 KMAF 272320
TAFMAF
TAF
KMAF 272320Z 2800/2824 19008KT P6SM SKC
     FM281200 18010KT P6SM SCT250=



000
FTUS44 KMAF 272320
TAFMAF
TAF
KMAF 272320Z 2800/2824 19008KT P6SM SKC
     FM281200 18010KT P6SM SCT250=



000
FTUS44 KMAF 271728
TAFMAF
TAF
KMAF 271728Z 2718/2818 16010KT P6SM SCT100=



000
FTUS44 KMAF 271728
TAFMAF
TAF
KMAF 271728Z 2718/2818 16010KT P6SM SCT100=



    US Dept of Commerce
    National Oceanic and Atmospheric Administration
    National Weather Service
    1325 East West Highway
    Silver Spring, MD 20910
    Page Author: NWS Internet Services Team
Disclaimer
Information Quality
Credits
Glossary
Privacy Policy
Freedom of Information Act (FOIA)
About Us
Career Opportunities